sensor_id;sensor_type;location;lat;lon;timestamp;P1;durP1;ratioP1;P2;durP2;ratioP2
31424;SDS011;18054;51.572;7.372;2023-04-03T00:02:34;22.02;;;9.07;;
31424;SDS011;18054;51.572;7.372;2023-04-03T00:05:02;17.05;;;9.43;;
31424;SDS011;18054;51.572;7.372;2023-04-03T00:07:30;22.10;;;9.20;;
31424;SDS011;18054;51.572;7.372;2023-04-03T00:09:58;21.77;;;9.05;;
31424;SDS011;18054;51.572;7.372;2023-04-03T00:12:25;17.10;;;9.13;;
31424;SDS011;18054;51.572;7.372;2023-04-03T00:14:53;19.73;;;9.63;;
31424;SDS011;18054;51.572;7.372;2023-04-03T00:17:20;27.45;;;11.15;;
31424;SDS011;18054;51.572;7.372;2023-04-03T00:19:49;18.90;;;9.10;;
31424;SDS011;18054;51.572;7.372;2023-04-03T00:22:16;21.80;;;9.18;;
31424;SDS011;18054;51.572;7.372;2023-04-03T00:24:44;26.23;;;8.90;;
31424;SDS011;18054;51.572;7.372;2023-04-03T00:27:11;19.80;;;9.00;;
31424;SDS011;18054;51.572;7.372;2023-04-03T00:29:38;20.45;;;8.38;;
31424;SDS011;18054;51.572;7.372;2023-04-03T00:32:06;13.80;;;8.63;;
31424;SDS011;18054;51.572;7.372;2023-04-03T00:34:33;13.70;;;7.18;;
31424;SDS011;18054;51.572;7.372;2023-04-03T00:37:02;15.25;;;7.10;;
31424;SDS011;18054;51.572;7.372;2023-04-03T00:39:30;19.17;;;7.15;;
31424;SDS011;18054;51.572;7.372;2023-04-03T00:47:08;32.08;;;6.03;;
31424;SDS011;18054;51.572;7.372;2023-04-03T00:49:36;15.43;;;7.28;;
31424;SDS011;18054;51.572;7.372;2023-04-03T00:52:06;13.75;;;5.60;;
31424;SDS011;18054;51.572;7.372;2023-04-03T00:54:34;15.80;;;5.78;;
31424;SDS011;18054;51.572;7.372;2023-04-03T00:59:30;14.43;;;5.15;;
31424;SDS011;18054;51.572;7.372;2023-04-03T01:01:59;12.68;;;5.00;;
31424;SDS011;18054;51.572;7.372;2023-04-03T01:09:23;12.90;;;3.63;;
31424;SDS011;18054;51.572;7.372;2023-04-03T01:11:50;8.60;;;3.40;;
31424;SDS011;18054;51.572;7.372;2023-04-03T01:14:18;14.30;;;3.88;;
31424;SDS011;18054;51.572;7.372;2023-04-03T01:16:51;7.85;;;3.88;;
31424;SDS011;18054;51.572;7.372;2023-04-03T01:19:18;10.30;;;3.15;;
31424;SDS011;18054;51.572;7.372;2023-04-03T01:24:35;8.85;;;3.00;;
31424;SDS011;18054;51.572;7.372;2023-04-03T01:27:07;7.25;;;2.83;;
31424;SDS011;18054;51.572;7.372;2023-04-03T01:29:36;11.40;;;3.17;;
31424;SDS011;18054;51.572;7.372;2023-04-03T01:32:05;17.60;;;3.13;;
31424;SDS011;18054;51.572;7.372;2023-04-03T01:34:33;13.40;;;2.65;;
31424;SDS011;18054;51.572;7.372;2023-04-03T01:37:00;11.55;;;3.55;;
31424;SDS011;18054;51.572;7.372;2023-04-03T01:39:28;14.75;;;3.25;;
31424;SDS011;18054;51.572;7.372;2023-04-03T01:41:55;8.95;;;2.70;;
31424;SDS011;18054;51.572;7.372;2023-04-03T01:44:29;9.52;;;2.70;;
31424;SDS011;18054;51.572;7.372;2023-04-03T01:46:57;8.65;;;2.58;;
31424;SDS011;18054;51.572;7.372;2023-04-03T01:49:28;9.43;;;2.90;;
31424;SDS011;18054;51.572;7.372;2023-04-03T01:51:56;15.55;;;2.78;;
31424;SDS011;18054;51.572;7.372;2023-04-03T01:54:23;8.30;;;2.30;;
31424;SDS011;18054;51.572;7.372;2023-04-03T01:56:51;7.45;;;2.80;;
31424;SDS011;18054;51.572;7.372;2023-04-03T01:59:19;7.03;;;2.53;;
31424;SDS011;18054;51.572;7.372;2023-04-03T02:01:47;8.70;;;2.67;;
31424;SDS011;18054;51.572;7.372;2023-04-03T02:04:14;14.82;;;3.38;;
31424;SDS011;18054;51.572;7.372;2023-04-03T02:06:43;8.85;;;2.60;;
31424;SDS011;18054;51.572;7.372;2023-04-03T02:09:10;18.30;;;3.03;;
31424;SDS011;18054;51.572;7.372;2023-04-03T02:11:38;4.70;;;2.00;;
31424;SDS011;18054;51.572;7.372;2023-04-03T02:14:05;11.85;;;2.47;;
31424;SDS011;18054;51.572;7.372;2023-04-03T02:19:00;13.07;;;2.33;;
31424;SDS011;18054;51.572;7.372;2023-04-03T02:21:29;7.60;;;2.53;;
31424;SDS011;18054;51.572;7.372;2023-04-03T02:23:58;10.73;;;2.38;;
31424;SDS011;18054;51.572;7.372;2023-04-03T02:26:25;9.73;;;2.50;;
31424;SDS011;18054;51.572;7.372;2023-04-03T02:28:53;15.25;;;3.50;;
31424;SDS011;18054;51.572;7.372;2023-04-03T02:31:20;10.00;;;3.05;;
31424;SDS011;18054;51.572;7.372;2023-04-03T02:33:47;7.07;;;2.67;;
31424;SDS011;18054;51.572;7.372;2023-04-03T02:38:48;5.72;;;2.53;;
31424;SDS011;18054;51.572;7.372;2023-04-03T02:41:17;7.05;;;2.25;;
31424;SDS011;18054;51.572;7.372;2023-04-03T02:43:46;5.97;;;2.22;;
31424;SDS011;18054;51.572;7.372;2023-04-03T02:46:14;12.15;;;2.83;;
31424;SDS011;18054;51.572;7.372;2023-04-03T02:48:42;11.40;;;2.60;;
31424;SDS011;18054;51.572;7.372;2023-04-03T02:51:09;4.63;;;1.85;;
31424;SDS011;18054;51.572;7.372;2023-04-03T02:53:37;6.78;;;2.03;;
31424;SDS011;18054;51.572;7.372;2023-04-03T02:56:11;8.45;;;2.22;;
31424;SDS011;18054;51.572;7.372;2023-04-03T02:58:39;10.30;;;2.42;;
31424;SDS011;18054;51.572;7.372;2023-04-03T03:01:09;26.00;;;9.55;;
31424;SDS011;18054;51.572;7.372;2023-04-03T03:03:36;13.65;;;3.05;;
31424;SDS011;18054;51.572;7.372;2023-04-03T03:06:04;14.70;;;2.47;;
31424;SDS011;18054;51.572;7.372;2023-04-03T03:08:32;6.45;;;2.20;;
31424;SDS011;18054;51.572;7.372;2023-04-03T03:13:27;11.75;;;2.03;;
31424;SDS011;18054;51.572;7.372;2023-04-03T03:15:57;8.30;;;2.47;;
31424;SDS011;18054;51.572;7.372;2023-04-03T03:18:24;10.75;;;2.67;;
31424;SDS011;18054;51.572;7.372;2023-04-03T03:20:52;9.95;;;2.35;;
31424;SDS011;18054;51.572;7.372;2023-04-03T03:23:20;11.48;;;2.58;;
31424;SDS011;18054;51.572;7.372;2023-04-03T03:25:48;10.18;;;3.28;;
31424;SDS011;18054;51.572;7.372;2023-04-03T03:28:16;14.18;;;3.08;;
31424;SDS011;18054;51.572;7.372;2023-04-03T03:30:43;13.35;;;3.65;;
31424;SDS011;18054;51.572;7.372;2023-04-03T03:33:12;16.08;;;2.78;;
31424;SDS011;18054;51.572;7.372;2023-04-03T03:35:39;8.98;;;2.85;;
31424;SDS011;18054;51.572;7.372;2023-04-03T03:38:08;12.70;;;2.80;;
31424;SDS011;18054;51.572;7.372;2023-04-03T03:40:36;14.82;;;3.53;;
31424;SDS011;18054;51.572;7.372;2023-04-03T03:45:31;7.45;;;3.05;;
31424;SDS011;18054;51.572;7.372;2023-04-03T03:47:59;9.15;;;3.05;;
31424;SDS011;18054;51.572;7.372;2023-04-03T03:50:27;13.63;;;3.78;;
31424;SDS011;18054;51.572;7.372;2023-04-03T03:52:55;7.65;;;2.30;;
31424;SDS011;18054;51.572;7.372;2023-04-03T03:55:23;10.40;;;2.83;;
31424;SDS011;18054;51.572;7.372;2023-04-03T03:57:53;11.93;;;3.03;;
31424;SDS011;18054;51.572;7.372;2023-04-03T04:00:21;16.90;;;3.30;;
31424;SDS011;18054;51.572;7.372;2023-04-03T04:02:53;14.13;;;3.20;;
31424;SDS011;18054;51.572;7.372;2023-04-03T04:05:24;13.98;;;2.90;;
31424;SDS011;18054;51.572;7.372;2023-04-03T04:07:54;8.77;;;2.40;;
31424;SDS011;18054;51.572;7.372;2023-04-03T04:10:22;13.63;;;3.47;;
31424;SDS011;18054;51.572;7.372;2023-04-03T04:12:51;16.75;;;3.67;;
31424;SDS011;18054;51.572;7.372;2023-04-03T04:15:22;6.55;;;3.05;;
31424;SDS011;18054;51.572;7.372;2023-04-03T04:17:52;16.20;;;3.15;;
31424;SDS011;18054;51.572;7.372;2023-04-03T04:20:21;13.02;;;2.88;;
31424;SDS011;18054;51.572;7.372;2023-04-03T04:22:49;12.63;;;2.90;;
31424;SDS011;18054;51.572;7.372;2023-04-03T04:25:19;10.60;;;3.25;;
31424;SDS011;18054;51.572;7.372;2023-04-03T04:27:47;9.63;;;3.28;;
31424;SDS011;18054;51.572;7.372;2023-04-03T04:30:14;13.82;;;3.58;;
31424;SDS011;18054;51.572;7.372;2023-04-03T04:32:44;15.88;;;2.97;;
31424;SDS011;18054;51.572;7.372;2023-04-03T04:35:12;9.15;;;2.72;;
31424;SDS011;18054;51.572;7.372;2023-04-03T04:37:44;11.52;;;3.00;;
31424;SDS011;18054;51.572;7.372;2023-04-03T04:40:13;13.90;;;3.05;;
31424;SDS011;18054;51.572;7.372;2023-04-03T04:42:42;14.23;;;4.10;;
31424;SDS011;18054;51.572;7.372;2023-04-03T04:45:10;13.18;;;3.05;;
31424;SDS011;18054;51.572;7.372;2023-04-03T04:47:39;11.40;;;2.72;;
31424;SDS011;18054;51.572;7.372;2023-04-03T04:50:08;12.93;;;3.55;;
31424;SDS011;18054;51.572;7.372;2023-04-03T04:52:36;14.30;;;4.45;;
31424;SDS011;18054;51.572;7.372;2023-04-03T04:55:05;18.05;;;3.67;;
31424;SDS011;18054;51.572;7.372;2023-04-03T04:57:33;11.88;;;3.78;;
31424;SDS011;18054;51.572;7.372;2023-04-03T05:00:04;9.98;;;3.58;;
31424;SDS011;18054;51.572;7.372;2023-04-03T05:02:31;10.50;;;3.40;;
31424;SDS011;18054;51.572;7.372;2023-04-03T05:04:59;11.55;;;3.95;;
31424;SDS011;18054;51.572;7.372;2023-04-03T05:07:30;19.77;;;3.83;;
31424;SDS011;18054;51.572;7.372;2023-04-03T05:09:58;19.17;;;3.28;;
31424;SDS011;18054;51.572;7.372;2023-04-03T05:12:26;15.25;;;3.13;;
31424;SDS011;18054;51.572;7.372;2023-04-03T05:14:58;14.82;;;3.70;;
31424;SDS011;18054;51.572;7.372;2023-04-03T05:17:29;11.52;;;3.08;;
31424;SDS011;18054;51.572;7.372;2023-04-03T05:19:57;13.15;;;3.65;;
31424;SDS011;18054;51.572;7.372;2023-04-03T05:22:26;9.63;;;3.30;;
31424;SDS011;18054;51.572;7.372;2023-04-03T05:24:59;14.38;;;3.53;;
31424;SDS011;18054;51.572;7.372;2023-04-03T05:27:26;13.75;;;4.10;;
31424;SDS011;18054;51.572;7.372;2023-04-03T05:29:57;15.60;;;3.42;;
31424;SDS011;18054;51.572;7.372;2023-04-03T05:32:25;16.02;;;4.13;;
31424;SDS011;18054;51.572;7.372;2023-04-03T05:35:07;13.73;;;4.13;;
31424;SDS011;18054;51.572;7.372;2023-04-03T05:37:35;12.23;;;3.65;;
31424;SDS011;18054;51.572;7.372;2023-04-03T05:40:03;12.98;;;3.75;;
31424;SDS011;18054;51.572;7.372;2023-04-03T05:42:32;21.48;;;3.58;;
31424;SDS011;18054;51.572;7.372;2023-04-03T05:44:59;14.93;;;3.60;;
31424;SDS011;18054;51.572;7.372;2023-04-03T05:47:27;18.00;;;3.78;;
31424;SDS011;18054;51.572;7.372;2023-04-03T05:49:54;11.82;;;3.40;;
31424;SDS011;18054;51.572;7.372;2023-04-03T05:52:25;10.90;;;3.92;;
31424;SDS011;18054;51.572;7.372;2023-04-03T05:54:53;16.85;;;4.10;;
31424;SDS011;18054;51.572;7.372;2023-04-03T05:57:24;14.93;;;3.83;;
31424;SDS011;18054;51.572;7.372;2023-04-03T05:59:52;15.48;;;3.50;;
31424;SDS011;18054;51.572;7.372;2023-04-03T06:02:22;9.52;;;3.63;;
31424;SDS011;18054;51.572;7.372;2023-04-03T06:04:50;20.80;;;3.80;;
31424;SDS011;18054;51.572;7.372;2023-04-03T06:07:19;11.82;;;4.20;;
31424;SDS011;18054;51.572;7.372;2023-04-03T06:09:50;11.95;;;3.88;;
31424;SDS011;18054;51.572;7.372;2023-04-03T06:12:18;15.90;;;3.72;;
31424;SDS011;18054;51.572;7.372;2023-04-03T06:17:14;15.20;;;3.53;;
31424;SDS011;18054;51.572;7.372;2023-04-03T06:19:42;12.55;;;3.90;;
31424;SDS011;18054;51.572;7.372;2023-04-03T06:22:09;12.60;;;4.65;;
31424;SDS011;18054;51.572;7.372;2023-04-03T06:24:37;13.27;;;3.25;;
31424;SDS011;18054;51.572;7.372;2023-04-03T06:29:34;22.58;;;3.25;;
31424;SDS011;18054;51.572;7.372;2023-04-03T06:32:03;20.20;;;3.30;;
31424;SDS011;18054;51.572;7.372;2023-04-03T06:34:30;18.58;;;3.95;;
31424;SDS011;18054;51.572;7.372;2023-04-03T06:39:25;15.10;;;3.17;;
31424;SDS011;18054;51.572;7.372;2023-04-03T06:41:53;12.88;;;3.58;;
31424;SDS011;18054;51.572;7.372;2023-04-03T06:44:37;16.85;;;4.90;;
31424;SDS011;18054;51.572;7.372;2023-04-03T06:47:04;20.98;;;4.25;;
31424;SDS011;18054;51.572;7.372;2023-04-03T06:49:32;10.70;;;3.05;;
31424;SDS011;18054;51.572;7.372;2023-04-03T06:51:59;13.48;;;3.20;;
31424;SDS011;18054;51.572;7.372;2023-04-03T06:54:28;15.27;;;3.70;;
31424;SDS011;18054;51.572;7.372;2023-04-03T06:56:55;12.68;;;3.05;;
31424;SDS011;18054;51.572;7.372;2023-04-03T06:59:23;13.82;;;3.20;;
31424;SDS011;18054;51.572;7.372;2023-04-03T07:01:52;13.95;;;2.95;;
31424;SDS011;18054;51.572;7.372;2023-04-03T07:04:19;11.40;;;2.72;;
31424;SDS011;18054;51.572;7.372;2023-04-03T07:06:47;12.75;;;3.55;;
31424;SDS011;18054;51.572;7.372;2023-04-03T07:09:14;12.43;;;2.22;;
31424;SDS011;18054;51.572;7.372;2023-04-03T07:11:42;8.13;;;2.55;;
31424;SDS011;18054;51.572;7.372;2023-04-03T07:14:09;18.85;;;5.20;;
31424;SDS011;18054;51.572;7.372;2023-04-03T07:16:37;11.90;;;3.13;;
31424;SDS011;18054;51.572;7.372;2023-04-03T07:19:09;14.82;;;3.25;;
31424;SDS011;18054;51.572;7.372;2023-04-03T07:21:36;6.90;;;2.08;;
31424;SDS011;18054;51.572;7.372;2023-04-03T07:24:04;16.23;;;2.78;;
31424;SDS011;18054;51.572;7.372;2023-04-03T07:26:32;16.45;;;2.90;;
31424;SDS011;18054;51.572;7.372;2023-04-03T07:29:00;10.55;;;2.80;;
31424;SDS011;18054;51.572;7.372;2023-04-03T07:31:27;13.25;;;2.70;;
31424;SDS011;18054;51.572;7.372;2023-04-03T07:33:54;9.40;;;2.78;;
31424;SDS011;18054;51.572;7.372;2023-04-03T07:36:23;11.32;;;2.58;;
31424;SDS011;18054;51.572;7.372;2023-04-03T07:38:51;10.82;;;3.00;;
31424;SDS011;18054;51.572;7.372;2023-04-03T07:41:19;11.82;;;3.20;;
31424;SDS011;18054;51.572;7.372;2023-04-03T07:43:46;13.48;;;3.03;;
31424;SDS011;18054;51.572;7.372;2023-04-03T07:46:15;8.43;;;2.30;;
31424;SDS011;18054;51.572;7.372;2023-04-03T07:48:43;19.42;;;3.35;;
31424;SDS011;18054;51.572;7.372;2023-04-03T07:51:11;11.07;;;2.70;;
31424;SDS011;18054;51.572;7.372;2023-04-03T07:56:07;14.02;;;3.50;;
31424;SDS011;18054;51.572;7.372;2023-04-03T07:58:35;8.77;;;2.40;;
31424;SDS011;18054;51.572;7.372;2023-04-03T08:01:03;8.25;;;2.33;;
31424;SDS011;18054;51.572;7.372;2023-04-03T08:03:30;7.82;;;2.47;;
31424;SDS011;18054;51.572;7.372;2023-04-03T08:06:01;7.93;;;2.05;;
31424;SDS011;18054;51.572;7.372;2023-04-03T08:08:30;9.38;;;2.28;;
31424;SDS011;18054;51.572;7.372;2023-04-03T08:10:59;12.52;;;3.20;;
31424;SDS011;18054;51.572;7.372;2023-04-03T08:13:29;6.07;;;1.63;;
31424;SDS011;18054;51.572;7.372;2023-04-03T08:15:57;20.58;;;1.92;;
31424;SDS011;18054;51.572;7.372;2023-04-03T08:18:25;14.00;;;2.25;;
31424;SDS011;18054;51.572;7.372;2023-04-03T08:20:52;13.10;;;2.08;;
31424;SDS011;18054;51.572;7.372;2023-04-03T08:23:20;14.88;;;2.35;;
31424;SDS011;18054;51.572;7.372;2023-04-03T08:25:47;14.30;;;2.08;;
31424;SDS011;18054;51.572;7.372;2023-04-03T08:28:15;8.85;;;2.30;;
31424;SDS011;18054;51.572;7.372;2023-04-03T08:30:44;12.30;;;2.47;;
31424;SDS011;18054;51.572;7.372;2023-04-03T08:33:12;12.10;;;2.55;;
31424;SDS011;18054;51.572;7.372;2023-04-03T08:35:40;24.83;;;2.47;;
31424;SDS011;18054;51.572;7.372;2023-04-03T08:38:08;5.07;;;1.83;;
31424;SDS011;18054;51.572;7.372;2023-04-03T08:40:35;12.23;;;2.95;;
31424;SDS011;18054;51.572;7.372;2023-04-03T08:43:09;4.53;;;1.67;;
31424;SDS011;18054;51.572;7.372;2023-04-03T08:45:45;10.45;;;2.85;;
31424;SDS011;18054;51.572;7.372;2023-04-03T08:48:15;7.90;;;2.08;;
31424;SDS011;18054;51.572;7.372;2023-04-03T08:50:43;6.93;;;1.88;;
31424;SDS011;18054;51.572;7.372;2023-04-03T08:53:13;5.97;;;1.90;;
31424;SDS011;18054;51.572;7.372;2023-04-03T08:55:42;7.75;;;1.55;;
31424;SDS011;18054;51.572;7.372;2023-04-03T08:58:11;12.55;;;2.42;;
31424;SDS011;18054;51.572;7.372;2023-04-03T09:00:41;7.88;;;1.98;;
31424;SDS011;18054;51.572;7.372;2023-04-03T09:03:13;8.35;;;1.85;;
31424;SDS011;18054;51.572;7.372;2023-04-03T09:05:42;4.70;;;1.42;;
31424;SDS011;18054;51.572;7.372;2023-04-03T09:08:14;6.47;;;1.67;;
31424;SDS011;18054;51.572;7.372;2023-04-03T09:10:44;6.38;;;1.70;;
31424;SDS011;18054;51.572;7.372;2023-04-03T09:13:13;7.25;;;1.40;;
31424;SDS011;18054;51.572;7.372;2023-04-03T09:15:46;11.57;;;1.95;;
31424;SDS011;18054;51.572;7.372;2023-04-03T09:18:16;10.93;;;1.80;;
31424;SDS011;18054;51.572;7.372;2023-04-03T09:20:46;11.65;;;2.13;;
31424;SDS011;18054;51.572;7.372;2023-04-03T09:23:15;10.00;;;2.38;;
31424;SDS011;18054;51.572;7.372;2023-04-03T09:25:45;6.55;;;1.58;;
31424;SDS011;18054;51.572;7.372;2023-04-03T09:28:13;8.35;;;1.95;;
31424;SDS011;18054;51.572;7.372;2023-04-03T09:30:40;6.78;;;1.73;;
31424;SDS011;18054;51.572;7.372;2023-04-03T09:33:08;8.00;;;2.25;;
31424;SDS011;18054;51.572;7.372;2023-04-03T09:38:18;11.73;;;2.08;;
31424;SDS011;18054;51.572;7.372;2023-04-03T09:40:47;7.50;;;2.10;;
31424;SDS011;18054;51.572;7.372;2023-04-03T09:43:19;7.05;;;1.42;;
31424;SDS011;18054;51.572;7.372;2023-04-03T09:45:48;7.38;;;1.75;;
31424;SDS011;18054;51.572;7.372;2023-04-03T09:48:18;6.75;;;1.73;;
31424;SDS011;18054;51.572;7.372;2023-04-03T09:50:53;8.25;;;1.63;;
31424;SDS011;18054;51.572;7.372;2023-04-03T09:53:26;5.80;;;1.40;;
31424;SDS011;18054;51.572;7.372;2023-04-03T09:55:54;7.53;;;1.52;;
31424;SDS011;18054;51.572;7.372;2023-04-03T09:58:23;8.65;;;1.70;;
31424;SDS011;18054;51.572;7.372;2023-04-03T10:00:54;6.38;;;1.50;;
31424;SDS011;18054;51.572;7.372;2023-04-03T10:03:23;6.93;;;1.50;;
31424;SDS011;18054;51.572;7.372;2023-04-03T10:05:51;4.90;;;1.65;;
31424;SDS011;18054;51.572;7.372;2023-04-03T10:08:22;5.13;;;1.13;;
31424;SDS011;18054;51.572;7.372;2023-04-03T10:13:56;12.77;;;1.85;;
31424;SDS011;18054;51.572;7.372;2023-04-03T10:16:35;5.45;;;1.30;;
31424;SDS011;18054;51.572;7.372;2023-04-03T10:19:11;6.72;;;1.73;;
31424;SDS011;18054;51.572;7.372;2023-04-03T10:21:42;7.15;;;1.67;;
31424;SDS011;18054;51.572;7.372;2023-04-03T10:24:13;6.93;;;2.00;;
31424;SDS011;18054;51.572;7.372;2023-04-03T10:26:45;7.18;;;1.77;;
31424;SDS011;18054;51.572;7.372;2023-04-03T10:29:18;7.53;;;1.48;;
31424;SDS011;18054;51.572;7.372;2023-04-03T10:31:53;4.53;;;1.67;;
31424;SDS011;18054;51.572;7.372;2023-04-03T10:34:26;5.03;;;1.40;;
31424;SDS011;18054;51.572;7.372;2023-04-03T10:36:56;6.45;;;1.35;;
31424;SDS011;18054;51.572;7.372;2023-04-03T10:39:27;9.18;;;1.90;;
31424;SDS011;18054;51.572;7.372;2023-04-03T10:42:00;9.20;;;1.63;;
31424;SDS011;18054;51.572;7.372;2023-04-03T10:44:45;7.15;;;1.40;;
31424;SDS011;18054;51.572;7.372;2023-04-03T10:47:16;6.03;;;1.38;;
31424;SDS011;18054;51.572;7.372;2023-04-03T10:49:48;9.00;;;2.17;;
31424;SDS011;18054;51.572;7.372;2023-04-03T10:52:26;4.63;;;1.33;;
31424;SDS011;18054;51.572;7.372;2023-04-03T10:54:56;4.38;;;1.35;;
31424;SDS011;18054;51.572;7.372;2023-04-03T10:57:26;9.40;;;1.48;;
31424;SDS011;18054;51.572;7.372;2023-04-03T10:59:56;7.20;;;1.70;;
31424;SDS011;18054;51.572;7.372;2023-04-03T11:02:26;6.35;;;1.40;;
31424;SDS011;18054;51.572;7.372;2023-04-03T11:04:58;7.43;;;1.35;;
31424;SDS011;18054;51.572;7.372;2023-04-03T11:07:27;2.53;;;0.90;;
31424;SDS011;18054;51.572;7.372;2023-04-03T11:09:57;8.77;;;1.70;;
31424;SDS011;18054;51.572;7.372;2023-04-03T11:12:27;5.53;;;1.33;;
31424;SDS011;18054;51.572;7.372;2023-04-03T11:14:58;3.72;;;1.00;;
31424;SDS011;18054;51.572;7.372;2023-04-03T11:17:28;8.75;;;1.40;;
31424;SDS011;18054;51.572;7.372;2023-04-03T11:19:59;5.60;;;1.30;;
31424;SDS011;18054;51.572;7.372;2023-04-03T11:22:29;7.38;;;1.25;;
31424;SDS011;18054;51.572;7.372;2023-04-03T11:24:59;6.95;;;1.33;;
31424;SDS011;18054;51.572;7.372;2023-04-03T11:27:30;4.63;;;1.17;;
31424;SDS011;18054;51.572;7.372;2023-04-03T11:30:02;2.80;;;1.20;;
31424;SDS011;18054;51.572;7.372;2023-04-03T11:32:44;4.75;;;1.00;;
31424;SDS011;18054;51.572;7.372;2023-04-03T11:35:16;10.95;;;1.40;;
31424;SDS011;18054;51.572;7.372;2023-04-03T11:37:44;6.55;;;0.85;;
31424;SDS011;18054;51.572;7.372;2023-04-03T11:40:19;6.60;;;1.42;;
31424;SDS011;18054;51.572;7.372;2023-04-03T11:42:47;3.03;;;0.88;;
31424;SDS011;18054;51.572;7.372;2023-04-03T11:45:28;5.07;;;1.30;;
31424;SDS011;18054;51.572;7.372;2023-04-03T11:47:58;3.50;;;1.30;;
31424;SDS011;18054;51.572;7.372;2023-04-03T11:50:43;6.15;;;1.50;;
31424;SDS011;18054;51.572;7.372;2023-04-03T11:53:27;4.28;;;1.30;;
31424;SDS011;18054;51.572;7.372;2023-04-03T11:55:56;5.05;;;1.25;;
31424;SDS011;18054;51.572;7.372;2023-04-03T11:58:24;3.88;;;1.10;;
31424;SDS011;18054;51.572;7.372;2023-04-03T12:01:03;6.03;;;1.25;;
31424;SDS011;18054;51.572;7.372;2023-04-03T12:09:30;4.00;;;1.25;;
31424;SDS011;18054;51.572;7.372;2023-04-03T12:12:00;5.28;;;1.30;;
31424;SDS011;18054;51.572;7.372;2023-04-03T12:14:28;3.90;;;1.23;;
31424;SDS011;18054;51.572;7.372;2023-04-03T12:16:57;5.97;;;1.60;;
31424;SDS011;18054;51.572;7.372;2023-04-03T12:19:30;8.18;;;1.40;;
31424;SDS011;18054;51.572;7.372;2023-04-03T12:22:14;5.28;;;1.30;;
31424;SDS011;18054;51.572;7.372;2023-04-03T12:24:44;5.57;;;1.13;;
31424;SDS011;18054;51.572;7.372;2023-04-03T12:27:20;4.95;;;1.10;;
31424;SDS011;18054;51.572;7.372;2023-04-03T12:29:50;10.23;;;1.30;;
31424;SDS011;18054;51.572;7.372;2023-04-03T12:32:24;3.67;;;1.00;;
31424;SDS011;18054;51.572;7.372;2023-04-03T12:34:56;5.82;;;1.13;;
31424;SDS011;18054;51.572;7.372;2023-04-03T12:37:39;5.60;;;1.60;;
31424;SDS011;18054;51.572;7.372;2023-04-03T12:40:10;7.05;;;2.15;;
31424;SDS011;18054;51.572;7.372;2023-04-03T12:42:46;5.35;;;1.48;;
31424;SDS011;18054;51.572;7.372;2023-04-03T12:45:22;7.38;;;1.35;;
31424;SDS011;18054;51.572;7.372;2023-04-03T12:47:51;3.55;;;1.02;;
31424;SDS011;18054;51.572;7.372;2023-04-03T12:50:21;2.88;;;1.10;;
31424;SDS011;18054;51.572;7.372;2023-04-03T12:52:57;5.18;;;1.38;;
31424;SDS011;18054;51.572;7.372;2023-04-03T12:55:27;3.75;;;0.93;;
31424;SDS011;18054;51.572;7.372;2023-04-03T12:57:55;11.32;;;1.73;;
31424;SDS011;18054;51.572;7.372;2023-04-03T13:00:27;3.15;;;0.90;;
31424;SDS011;18054;51.572;7.372;2023-04-03T13:02:56;5.95;;;1.40;;
31424;SDS011;18054;51.572;7.372;2023-04-03T13:05:24;5.07;;;1.27;;
31424;SDS011;18054;51.572;7.372;2023-04-03T13:07:52;4.15;;;1.05;;
31424;SDS011;18054;51.572;7.372;2023-04-03T13:10:23;7.03;;;1.52;;
31424;SDS011;18054;51.572;7.372;2023-04-03T13:12:51;9.00;;;2.17;;
31424;SDS011;18054;51.572;7.372;2023-04-03T13:15:19;3.70;;;1.20;;
31424;SDS011;18054;51.572;7.372;2023-04-03T13:17:47;5.72;;;1.20;;
31424;SDS011;18054;51.572;7.372;2023-04-03T13:20:19;8.43;;;1.60;;
31424;SDS011;18054;51.572;7.372;2023-04-03T13:22:48;4.70;;;0.95;;
31424;SDS011;18054;51.572;7.372;2023-04-03T13:25:16;4.65;;;1.35;;
31424;SDS011;18054;51.572;7.372;2023-04-03T13:27:44;5.10;;;1.38;;
31424;SDS011;18054;51.572;7.372;2023-04-03T13:32:38;4.28;;;1.38;;
31424;SDS011;18054;51.572;7.372;2023-04-03T13:37:55;4.72;;;1.17;;
31424;SDS011;18054;51.572;7.372;2023-04-03T13:40:23;9.00;;;1.38;;
31424;SDS011;18054;51.572;7.372;2023-04-03T13:42:59;4.72;;;1.45;;
31424;SDS011;18054;51.572;7.372;2023-04-03T13:45:27;4.80;;;1.35;;
31424;SDS011;18054;51.572;7.372;2023-04-03T13:48:07;6.65;;;1.63;;
31424;SDS011;18054;51.572;7.372;2023-04-03T13:50:59;6.93;;;1.77;;
31424;SDS011;18054;51.572;7.372;2023-04-03T13:53:29;5.13;;;1.10;;
31424;SDS011;18054;51.572;7.372;2023-04-03T13:55:58;3.00;;;1.00;;
31424;SDS011;18054;51.572;7.372;2023-04-03T13:58:27;4.20;;;1.33;;
31424;SDS011;18054;51.572;7.372;2023-04-03T14:00:55;5.93;;;1.50;;
31424;SDS011;18054;51.572;7.372;2023-04-03T14:03:23;9.23;;;1.60;;
31424;SDS011;18054;51.572;7.372;2023-04-03T14:05:51;5.43;;;1.33;;
31424;SDS011;18054;51.572;7.372;2023-04-03T14:10:55;5.88;;;1.70;;
31424;SDS011;18054;51.572;7.372;2023-04-03T14:13:23;4.72;;;1.50;;
31424;SDS011;18054;51.572;7.372;2023-04-03T14:18:19;4.15;;;1.23;;
31424;SDS011;18054;51.572;7.372;2023-04-03T14:20:47;4.85;;;1.40;;
31424;SDS011;18054;51.572;7.372;2023-04-03T14:28:15;9.18;;;2.70;;
31424;SDS011;18054;51.572;7.372;2023-04-03T14:30:43;5.20;;;1.35;;
31424;SDS011;18054;51.572;7.372;2023-04-03T14:33:12;6.65;;;1.88;;
31424;SDS011;18054;51.572;7.372;2023-04-03T14:35:40;4.93;;;1.60;;
31424;SDS011;18054;51.572;7.372;2023-04-03T14:38:20;6.10;;;1.60;;
31424;SDS011;18054;51.572;7.372;2023-04-03T14:40:47;5.00;;;1.50;;
31424;SDS011;18054;51.572;7.372;2023-04-03T14:53:06;5.32;;;1.80;;
31424;SDS011;18054;51.572;7.372;2023-04-03T14:55:33;4.65;;;1.40;;
31424;SDS011;18054;51.572;7.372;2023-04-03T15:02:55;5.05;;;1.75;;
31424;SDS011;18054;51.572;7.372;2023-04-03T15:07:52;5.85;;;1.80;;
31424;SDS011;18054;51.572;7.372;2023-04-03T15:10:22;4.95;;;1.48;;
31424;SDS011;18054;51.572;7.372;2023-04-03T15:12:51;5.32;;;1.70;;
31424;SDS011;18054;51.572;7.372;2023-04-03T15:15:19;6.80;;;1.77;;
31424;SDS011;18054;51.572;7.372;2023-04-03T15:17:47;7.80;;;1.63;;
31424;SDS011;18054;51.572;7.372;2023-04-03T15:20:15;9.23;;;3.22;;
31424;SDS011;18054;51.572;7.372;2023-04-03T15:22:43;6.88;;;2.30;;
31424;SDS011;18054;51.572;7.372;2023-04-03T15:25:11;7.15;;;1.75;;
31424;SDS011;18054;51.572;7.372;2023-04-03T15:30:10;10.60;;;1.83;;
31424;SDS011;18054;51.572;7.372;2023-04-03T15:32:39;6.97;;;1.70;;
31424;SDS011;18054;51.572;7.372;2023-04-03T15:35:06;4.97;;;2.05;;
31424;SDS011;18054;51.572;7.372;2023-04-03T15:37:34;6.32;;;1.60;;
31424;SDS011;18054;51.572;7.372;2023-04-03T15:40:01;5.38;;;1.50;;
31424;SDS011;18054;51.572;7.372;2023-04-03T15:42:29;4.93;;;1.52;;
31424;SDS011;18054;51.572;7.372;2023-04-03T15:44:56;6.15;;;1.83;;
31424;SDS011;18054;51.572;7.372;2023-04-03T15:47:25;7.35;;;2.03;;
31424;SDS011;18054;51.572;7.372;2023-04-03T15:49:53;17.27;;;2.47;;
31424;SDS011;18054;51.572;7.372;2023-04-03T15:54:47;6.65;;;1.90;;
31424;SDS011;18054;51.572;7.372;2023-04-03T15:57:15;8.10;;;2.13;;
31424;SDS011;18054;51.572;7.372;2023-04-03T15:59:43;7.38;;;2.15;;
31424;SDS011;18054;51.572;7.372;2023-04-03T16:02:10;6.07;;;1.67;;
31424;SDS011;18054;51.572;7.372;2023-04-03T16:04:41;7.82;;;1.98;;
31424;SDS011;18054;51.572;7.372;2023-04-03T16:07:08;3.70;;;1.20;;
31424;SDS011;18054;51.572;7.372;2023-04-03T16:09:36;7.15;;;1.75;;
31424;SDS011;18054;51.572;7.372;2023-04-03T16:12:03;5.85;;;2.10;;
31424;SDS011;18054;51.572;7.372;2023-04-03T16:14:31;10.07;;;1.73;;
31424;SDS011;18054;51.572;7.372;2023-04-03T16:16:59;4.97;;;1.70;;
31424;SDS011;18054;51.572;7.372;2023-04-03T16:19:27;3.20;;;1.60;;